Valle Azzurra — ICEG — position and weather

sailwx.info

Track history (hours):
 
Tides and Currents Weather Stations Pressure Air Temp Water Temp Dewpoint Dewpoint Depression Visibility Wind Speed Wind Dir Waves Ship Positions

Valle Azzurra

Last reported at 2017-Jan-17 22:17 UTC. Time now 2017-Jan-18 22:22 UTC.
Position N 35°57' W 005°54'.

Length 183 m; draft 8 m.

Type: Tanker. MMSI: 247226600.

Date/timePositionNaut miles runAvg speedWind from/ knotsBaromVisibWave heightAir tempDewpointWater temp
2017-Jan-17 22:17N 35°57' W 005°54'810.3
2017-Jan-17 21:32N 35°57' W 005°44'9 9.7
2017-Jan-17 20:33N 35°58' W 005°33'3 0.3
2017-Jan-17 07:30N 35°55' W 005°30'7 7.0
2017-Jan-17 06:32N 35°54' W 005°38'1212.7
2017-Jan-17 05:33N 35°54' W 005°53'22011.6
2017-Jan-16 10:33N 37°40' W 009°54'1513.3
2017-Jan-16 09:25N 37°55' W 009°58'2613.4
2017-Jan-16 07:27N 38°20' W 010°06'1212.8
2017-Jan-16 06:33N 38°31' W 010°09'1312.7
2017-Jan-16 05:33N 38°44' W 010°12'1212.4
2017-Jan-16 04:33N 38°56' W 010°12'1312.4
2017-Jan-16 03:33N 39°09' W 010°11'  
2017-Jan-13 10:27N 50°08' W 002°07'8 8.4
2017-Jan-13 09:32N 50°10' W 001°55'7 7.0
2017-Jan-13 08:34N 50°11' W 001°45'7 6.9
2017-Jan-13 07:33N 50°13' W 001°35'8 8.1
2017-Jan-13 06:31N 50°16' W 001°22'1010.6
2017-Jan-13 05:32N 50°19' W 001°06'2813.6
2017-Jan-13 03:28N 50°26' W 000°24'1213.5
2017-Jan-13 02:33N 50°29' W 000°05'1312.9
2017-Jan-13 01:33N 50°33' E 000°14'1212.2
2017-Jan-13 00:32N 50°36' E 000°33'1111.3
2017-Jan-12 23:33N 50°42' E 000°48'1110.8
2017-Jan-12 22:31N 50°49' E 001°02'1010.8
2017-Jan-12 21:33N 50°56' E 001°14'1312.5
2017-Jan-12 20:33N 51°04' E 001°29'1515.5
2017-Jan-12 19:33N 51°15' E 001°47'1414.3
2017-Jan-12 18:34N 51°28' E 001°58'1313.0
2017-Jan-12 17:33N 51°37' E 002°12'7410.0
2017-Jan-12 10:08N 52°28' E 003°40'610.0
2017-Jan-12 09:34N 52°30' E 003°49'9 9.1
2017-Jan-12 08:33N 52°31' E 004°04'8 8.4
2017-Jan-12 07:33N 52°30' E 004°17'4 4.0
2017-Jan-12 06:34N 52°29' E 004°24'4 4.3
2017-Jan-12 05:34N 52°28' E 004°31'4 3.7
2017-Jan-12 04:34N 52°28' E 004°37'1 1.3
2017-Jan-12 03:33N 52°28' E 004°39'5 4.7
2017-Jan-12 02:33N 52°25' E 004°45'0 0.3
2017-Jan-12 01:32N 52°25' E 004°45'0 0.0
2017-Jan-12 00:29N 52°25' E 004°45'0 0.0
2017-Jan-11 23:32N 52°25' E 004°45'0 0.0
2017-Jan-11 22:32N 52°25' E 004°45'0 0.0
2017-Jan-11 21:32N 52°25' E 004°45'0 0.0
2017-Jan-11 20:33N 52°25' E 004°45'0 0.0
2017-Jan-11 19:31N 52°25' E 004°45'0 0.0
2017-Jan-11 18:31N 52°25' E 004°45'0 0.0
2017-Jan-11 17:31N 52°25' E 004°45'0 0.0
2017-Jan-11 16:31N 52°25' E 004°45'0 0.0
2017-Jan-11 15:31N 52°25' E 004°45'0 0.0
2017-Jan-11 14:31N 52°25' E 004°45'0 0.0
2017-Jan-11 13:28N 52°25' E 004°45'0 0.0
2017-Jan-11 12:31N 52°25' E 004°45'0 0.0
2017-Jan-11 11:31N 52°25' E 004°45'0 0.0
2017-Jan-11 10:31N 52°25' E 004°45'0 0.0
2017-Jan-11 09:31N 52°25' E 004°45'0 0.0
2017-Jan-11 08:31N 52°25' E 004°45'0 0.0
2017-Jan-11 07:31N 52°25' E 004°45'0 0.0
2017-Jan-11 06:31N 52°25' E 004°45'0 0.0
2017-Jan-11 05:25N 52°25' E 004°45'0 0.0
2017-Jan-11 04:31N 52°25' E 004°45'0 0.0
2017-Jan-11 03:31N 52°25' E 004°45'0 0.0
2017-Jan-11 02:31N 52°25' E 004°45'0 0.0
2017-Jan-11 01:31N 52°25' E 004°45'0 0.0
2017-Jan-11 00:31N 52°25' E 004°45'0 0.0
2017-Jan-10 23:31N 52°25' E 004°45'0 0.0
2017-Jan-10 22:31N 52°25' E 004°45'0 0.0
2017-Jan-10 21:31N 52°25' E 004°45'0 0.0
2017-Jan-10 20:31N 52°25' E 004°45'0 0.0
2017-Jan-10 19:31N 52°25' E 004°45'0 0.0
2017-Jan-10 18:31N 52°25' E 004°45'0 0.0
2017-Jan-10 17:31N 52°25' E 004°45'0 0.0
2017-Jan-10 16:31N 52°25' E 004°45'0 0.0
2017-Jan-10 15:31N 52°25' E 004°45'0 0.0
2017-Jan-10 14:28N 52°25' E 004°45'0 0.0
2017-Jan-10 13:31N 52°25' E 004°45'0 0.0
2017-Jan-10 12:31N 52°25' E 004°45'0 0.0
2017-Jan-10 11:31N 52°25' E 004°45'0 0.0
2017-Jan-10 10:31N 52°25' E 004°45'0 0.0
2017-Jan-10 09:31N 52°25' E 004°45'0 0.0
2017-Jan-10 08:31N 52°25' E 004°45'0 0.0
2017-Jan-10 07:31N 52°25' E 004°45'0 0.0
2017-Jan-10 06:31N 52°25' E 004°45'0 0.0
2017-Jan-10 05:31N 52°25' E 004°45'0 0.0
2017-Jan-10 04:31N 52°25' E 004°45'0 0.0
2017-Jan-10 03:28N 52°25' E 004°45'0 0.0
2017-Jan-10 02:31N 52°25' E 004°45'0 0.0
2017-Jan-10 01:31N 52°25' E 004°45'0 0.0
2017-Jan-10 00:31N 52°25' E 004°45'0 0.0
2017-Jan-09 23:31N 52°25' E 004°45'0 0.0
2017-Jan-09 22:28N 52°25' E 004°45'0 0.0
2017-Jan-09 21:31N 52°25' E 004°45'0 0.0
2017-Jan-09 20:31N 52°25' E 004°45'0 0.0
2017-Jan-09 19:31N 52°25' E 004°45'0 0.0
2017-Jan-09 18:31N 52°25' E 004°45'0 0.0
2017-Jan-09 17:31N 52°25' E 004°45'0 0.0
2017-Jan-09 16:31N 52°25' E 004°45'0 0.0
2017-Jan-09 15:31N 52°25' E 004°45'0 0.0
2017-Jan-09 14:31N 52°25' E 004°45'0 0.0
2017-Jan-09 13:31N 52°25' E 004°45'0 0.0
2017-Jan-09 12:31N 52°25' E 004°45'0 0.0
2017-Jan-09 11:31N 52°25' E 004°45'2 1.6
2017-Jan-09 10:34N 52°26' E 004°43'5 4.7
2017-Jan-09 09:34N 52°28' E 004°36'7 7.2
2017-Jan-09 08:34N 52°29' E 004°25'1010.0
2017-Jan-09 07:33N 52°29' E 004°08'2 2.2
2017-Jan-09 06:31N 52°27' E 004°05'0 0.0
2017-Jan-09 05:31N 52°27' E 004°05'0 0.1
2017-Jan-09 04:28N 52°27' E 004°05'0 0.1
2017-Jan-09 03:28N 52°28' E 004°05'0 0.0
2017-Jan-09 02:31N 52°28' E 004°05'0 0.0
2017-Jan-09 01:31N 52°28' E 004°05'0 0.0
2017-Jan-09 00:31N 52°28' E 004°05'0 0.0
2017-Jan-08 23:32N 52°28' E 004°05'0 0.0
2017-Jan-08 22:32N 52°28' E 004°05'0 0.0
2017-Jan-08 21:32N 52°28' E 004°05'0 0.2
2017-Jan-08 20:32N 52°27' E 004°05'0 0.0
2017-Jan-08 19:32N 52°27' E 004°05'0 0.0
2017-Jan-08 18:32N 52°27' E 004°05'0 0.0
2017-Jan-08 17:32N 52°27' E 004°05'0 0.0
2017-Jan-08 16:29N 52°27' E 004°05'0 0.0
2017-Jan-08 15:29N 52°27' E 004°05'0 0.0
2017-Jan-08 14:32N 52°27' E 004°05'0 0.1
2017-Jan-08 13:32N 52°28' E 004°05'0 0.0
2017-Jan-08 12:32N 52°28' E 004°05'0 0.0
2017-Jan-08 11:32N 52°28' E 004°05'0 0.0
2017-Jan-08 10:32N 52°28' E 004°05'0 0.0
2017-Jan-08 09:29N 52°28' E 004°05'0 0.2
2017-Jan-08 08:29N 52°27' E 004°05'0 0.0
2017-Jan-08 07:32N 52°27' E 004°05'0 0.0
2017-Jan-08 06:32N 52°27' E 004°05'0 0.0
2017-Jan-08 05:17N 52°27' E 004°05'0 0.0
2017-Jan-08 04:29N 52°27' E 004°05'0 0.0
2017-Jan-08 03:29N 52°27' E 004°05'0 0.1
2017-Jan-08 02:33N 52°27' E 004°05'0 0.0
2017-Jan-08 01:32N 52°27' E 004°05'0 0.1
2017-Jan-08 00:32N 52°28' E 004°05'0 0.0
2017-Jan-07 23:32N 52°28' E 004°05'0 0.2
2017-Jan-07 22:34N 52°28' E 004°05'  
Track history (hours):
 
Tides and Currents Weather Stations Pressure Air Temp Water Temp Dewpoint Dewpoint Depression Visibility Wind Speed Wind Dir Waves Ship Positions

Valle Azzurra

Last reported at 2017-Jan-17 22:17 UTC. Time now 2017-Jan-18 22:22 UTC.
Position N 35°57' W 005°54'.

Length 183 m; draft 8 m.

Type: Tanker. MMSI: 247226600.

Date/timePositionNaut miles runAvg speedWind from/ knotsBaromVisibWave heightAir tempDewpointWater temp
2017-Jan-17 22:17N 35°57' W 005°54'810.3
2017-Jan-17 21:32N 35°57' W 005°44'9 9.7
2017-Jan-17 20:33N 35°58' W 005°33'3 0.3
2017-Jan-17 07:30N 35°55' W 005°30'7 7.0
2017-Jan-17 06:32N 35°54' W 005°38'1212.7
2017-Jan-17 05:33N 35°54' W 005°53'22011.6
2017-Jan-16 10:33N 37°40' W 009°54'1513.3
2017-Jan-16 09:25N 37°55' W 009°58'2613.4
2017-Jan-16 07:27N 38°20' W 010°06'1212.8
2017-Jan-16 06:33N 38°31' W 010°09'1312.7
2017-Jan-16 05:33N 38°44' W 010°12'1212.4
2017-Jan-16 04:33N 38°56' W 010°12'1312.4
2017-Jan-16 03:33N 39°09' W 010°11'  
2017-Jan-13 10:27N 50°08' W 002°07'8 8.4
2017-Jan-13 09:32N 50°10' W 001°55'7 7.0
2017-Jan-13 08:34N 50°11' W 001°45'7 6.9
2017-Jan-13 07:33N 50°13' W 001°35'8 8.1
2017-Jan-13 06:31N 50°16' W 001°22'1010.6
2017-Jan-13 05:32N 50°19' W 001°06'2813.6
2017-Jan-13 03:28N 50°26' W 000°24'1213.5
2017-Jan-13 02:33N 50°29' W 000°05'1312.9
2017-Jan-13 01:33N 50°33' E 000°14'1212.2
2017-Jan-13 00:32N 50°36' E 000°33'1111.3
2017-Jan-12 23:33N 50°42' E 000°48'1110.8
2017-Jan-12 22:31N 50°49' E 001°02'1010.8
2017-Jan-12 21:33N 50°56' E 001°14'1312.5
2017-Jan-12 20:33N 51°04' E 001°29'1515.5
2017-Jan-12 19:33N 51°15' E 001°47'1414.3
2017-Jan-12 18:34N 51°28' E 001°58'1313.0
2017-Jan-12 17:33N 51°37' E 002°12'7410.0
2017-Jan-12 10:08N 52°28' E 003°40'610.0
2017-Jan-12 09:34N 52°30' E 003°49'9 9.1
2017-Jan-12 08:33N 52°31' E 004°04'8 8.4
2017-Jan-12 07:33N 52°30' E 004°17'4 4.0
2017-Jan-12 06:34N 52°29' E 004°24'4 4.3
2017-Jan-12 05:34N 52°28' E 004°31'4 3.7
2017-Jan-12 04:34N 52°28' E 004°37'1 1.3
2017-Jan-12 03:33N 52°28' E 004°39'5 4.7
2017-Jan-12 02:33N 52°25' E 004°45'0 0.3
2017-Jan-12 01:32N 52°25' E 004°45'0 0.0
2017-Jan-12 00:29N 52°25' E 004°45'0 0.0
2017-Jan-11 23:32N 52°25' E 004°45'0 0.0
2017-Jan-11 22:32N 52°25' E 004°45'0 0.0
2017-Jan-11 21:32N 52°25' E 004°45'0 0.0
2017-Jan-11 20:33N 52°25' E 004°45'0 0.0
2017-Jan-11 19:31N 52°25' E 004°45'0 0.0
2017-Jan-11 18:31N 52°25' E 004°45'0 0.0
2017-Jan-11 17:31N 52°25' E 004°45'0 0.0
2017-Jan-11 16:31N 52°25' E 004°45'0 0.0
2017-Jan-11 15:31N 52°25' E 004°45'0 0.0
2017-Jan-11 14:31N 52°25' E 004°45'0 0.0
2017-Jan-11 13:28N 52°25' E 004°45'0 0.0
2017-Jan-11 12:31N 52°25' E 004°45'0 0.0
2017-Jan-11 11:31N 52°25' E 004°45'0 0.0
2017-Jan-11 10:31N 52°25' E 004°45'0 0.0
2017-Jan-11 09:31N 52°25' E 004°45'0 0.0
2017-Jan-11 08:31N 52°25' E 004°45'0 0.0
2017-Jan-11 07:31N 52°25' E 004°45'0 0.0
2017-Jan-11 06:31N 52°25' E 004°45'0 0.0
2017-Jan-11 05:25N 52°25' E 004°45'0 0.0
2017-Jan-11 04:31N 52°25' E 004°45'0 0.0
2017-Jan-11 03:31N 52°25' E 004°45'0 0.0
2017-Jan-11 02:31N 52°25' E 004°45'0 0.0
2017-Jan-11 01:31N 52°25' E 004°45'0 0.0
2017-Jan-11 00:31N 52°25' E 004°45'0 0.0
2017-Jan-10 23:31N 52°25' E 004°45'0 0.0
2017-Jan-10 22:31N 52°25' E 004°45'0 0.0
2017-Jan-10 21:31N 52°25' E 004°45'0 0.0
2017-Jan-10 20:31N 52°25' E 004°45'0 0.0
2017-Jan-10 19:31N 52°25' E 004°45'0 0.0
2017-Jan-10 18:31N 52°25' E 004°45'0 0.0
2017-Jan-10 17:31N 52°25' E 004°45'0 0.0
2017-Jan-10 16:31N 52°25' E 004°45'0 0.0
2017-Jan-10 15:31N 52°25' E 004°45'0 0.0
2017-Jan-10 14:28N 52°25' E 004°45'0 0.0
2017-Jan-10 13:31N 52°25' E 004°45'0 0.0
2017-Jan-10 12:31N 52°25' E 004°45'0 0.0
2017-Jan-10 11:31N 52°25' E 004°45'0 0.0
2017-Jan-10 10:31N 52°25' E 004°45'0 0.0
2017-Jan-10 09:31N 52°25' E 004°45'0 0.0
2017-Jan-10 08:31N 52°25' E 004°45'0 0.0
2017-Jan-10 07:31N 52°25' E 004°45'0 0.0
2017-Jan-10 06:31N 52°25' E 004°45'0 0.0
2017-Jan-10 05:31N 52°25' E 004°45'0 0.0
2017-Jan-10 04:31N 52°25' E 004°45'0 0.0
2017-Jan-10 03:28N 52°25' E 004°45'0 0.0
2017-Jan-10 02:31N 52°25' E 004°45'0 0.0
2017-Jan-10 01:31N 52°25' E 004°45'0 0.0
2017-Jan-10 00:31N 52°25' E 004°45'0 0.0
2017-Jan-09 23:31N 52°25' E 004°45'0 0.0
2017-Jan-09 22:28N 52°25' E 004°45'0 0.0
2017-Jan-09 21:31N 52°25' E 004°45'0 0.0
2017-Jan-09 20:31N 52°25' E 004°45'0 0.0
2017-Jan-09 19:31N 52°25' E 004°45'0 0.0
2017-Jan-09 18:31N 52°25' E 004°45'0 0.0
2017-Jan-09 17:31N 52°25' E 004°45'0 0.0
2017-Jan-09 16:31N 52°25' E 004°45'0 0.0
2017-Jan-09 15:31N 52°25' E 004°45'0 0.0
2017-Jan-09 14:31N 52°25' E 004°45'0 0.0
2017-Jan-09 13:31N 52°25' E 004°45'0 0.0
2017-Jan-09 12:31N 52°25' E 004°45'0 0.0
2017-Jan-09 11:31N 52°25' E 004°45'2 1.6
2017-Jan-09 10:34N 52°26' E 004°43'5 4.7
2017-Jan-09 09:34N 52°28' E 004°36'7 7.2
2017-Jan-09 08:34N 52°29' E 004°25'1010.0
2017-Jan-09 07:33N 52°29' E 004°08'2 2.2
2017-Jan-09 06:31N 52°27' E 004°05'0 0.0
2017-Jan-09 05:31N 52°27' E 004°05'0 0.1
2017-Jan-09 04:28N 52°27' E 004°05'0 0.1
2017-Jan-09 03:28N 52°28' E 004°05'0 0.0
2017-Jan-09 02:31N 52°28' E 004°05'0 0.0
2017-Jan-09 01:31N 52°28' E 004°05'0 0.0
2017-Jan-09 00:31N 52°28' E 004°05'0 0.0
2017-Jan-08 23:32N 52°28' E 004°05'0 0.0
2017-Jan-08 22:32N 52°28' E 004°05'0 0.0
2017-Jan-08 21:32N 52°28' E 004°05'0 0.2
2017-Jan-08 20:32N 52°27' E 004°05'0 0.0
2017-Jan-08 19:32N 52°27' E 004°05'0 0.0
2017-Jan-08 18:32N 52°27' E 004°05'0 0.0
2017-Jan-08 17:32N 52°27' E 004°05'0 0.0
2017-Jan-08 16:29N 52°27' E 004°05'0 0.0
2017-Jan-08 15:29N 52°27' E 004°05'0 0.0
2017-Jan-08 14:32N 52°27' E 004°05'0 0.1
2017-Jan-08 13:32N 52°28' E 004°05'0 0.0
2017-Jan-08 12:32N 52°28' E 004°05'0 0.0
2017-Jan-08 11:32N 52°28' E 004°05'0 0.0
2017-Jan-08 10:32N 52°28' E 004°05'0 0.0
2017-Jan-08 09:29N 52°28' E 004°05'0 0.2
2017-Jan-08 08:29N 52°27' E 004°05'0 0.0
2017-Jan-08 07:32N 52°27' E 004°05'0 0.0
2017-Jan-08 06:32N 52°27' E 004°05'0 0.0
2017-Jan-08 05:17N 52°27' E 004°05'0 0.0
2017-Jan-08 04:29N 52°27' E 004°05'0 0.0
2017-Jan-08 03:29N 52°27' E 004°05'0 0.1
2017-Jan-08 02:33N 52°27' E 004°05'0 0.0
2017-Jan-08 01:32N 52°27' E 004°05'0 0.1
2017-Jan-08 00:32N 52°28' E 004°05'0 0.0
2017-Jan-07 23:32N 52°28' E 004°05'0 0.2
2017-Jan-07 22:34N 52°28' E 004°05'  

Dump ship's entire track history